Terminal Aerodrome Forecast
Issued by NWS

Home | Current Version | Previous Version | Text Only | Print | Product List | Glossary On
Versions: 1 2 3 4 5 6 7 8 9 10 11 12 13 14 15
000
FTUS45 KVEF 251905 AAA
TAFBIH
TAF AMD
KBIH 251905Z 2519/2618 12012KT P6SM VCSH BKN070 BKN110
     FM252300 10010KT P6SM VCTS BKN060 BKN080CB
      TEMPO 2523/2603 35025G35KT -TSRA BKN050CB
     FM260500 34009KT P6SM FEW060 BKN100=

USA.gov is the U.S. government's official web portal to all federal, state and local government web resources and services.